Airfield :
LOGIN :

Register | Disclaimer

   EN    FR    IT 

 










Legend :    VFR   Marginal VFR   IFR   Intensive IFR   Very Intensive IFR
Visi :
Ceiling :
>= 8 km
>= 3000ft
5 to 8 km
1000 to 3000 ft
1500m to 5 km
500 to 1000 ft
800 to 1500m
200 to 500 ft
< 800m
< 200 ft
Symbols :   Thunderstorms  Fog  Heavy snow  Heavy precipitations  Wind > 20 kt
SIGMETs :     Misc.  Thunderstorms  Icing  Turbulence  Mountain Waves  Volcanic Ashes






- Airport Elevation : 33 ft
- IATA code : MHZ


EGUN - RAF Mildenhall

CURRENT METAR :
  • 221955Z 23010KT 9999 FEW030 10/07 A2982 RMK AO2A SLP096 WND DATA ESTMD RVRNO $

EXPIRED METARs :
  • 221855Z 26010KT 9999 FEW030 10/07 A2981 RMK AO2A SLP094 WND DATA ESTMD RVRNO $
  • 221755Z 29010KT 9999 BKN030 11/07 A2980 RMK AO2A SLP090 WND DATA ESTMD RVRNO $
  • 221727Z 28010G17KT 9999 BKN030 10/07 A2979 RMK AO2A SLP088 WND DATA ESTMD RVRNO $

TAF TAF EGUN
Valid from the 22 at 20:00 until the 24 at 02:00 UTC


222000Z 2220/2402 24009KT 9999 SCT030 QNH2982INS
BECMG 2223/2224 22002KT 5000 BR SCT007 BKN015 QNH2978INS
BECMG 2302/2303 18001KT 5000 BR SCT005 BKN010 QNH2973INS
BECMG 2306/2307 18009KT 9999 NSW BKN015 QNH2973INS
BECMG 2309/2310 23010G20KT 9999 SCT020 QNH2970INS
TEMPO 2315/2318 8000 -SHRA BKN020 610604
BECMG 2320/2321 25010G20KT 9999 SCT015 QNH2970INS TX13/2312Z TN09/2221Z



MET'MAP, your aeronautical weather chart ! - Copyright ORBIFLY December 2007 - Disclaimer

ORBIFLY MET'MAP TEAM :

Programming & Development : Alexandra Zaïnal
Concept & original design : Baudouin d'Aumeries
Assistance for programming : Marc-Olivier Méhu
Technical & hardware support : Manuel Goepfert

Contact : metmap@orbifly.com




SOURCES & CREDITS :

   NOAA